createdAt,value
2019-05-13T00:01:43.436Z,103914.30
2019-05-13T00:04:09.422Z,103905.81
2019-05-13T00:06:49.909Z,103915.19
2019-05-13T00:09:05.566Z,103912.03
2019-05-13T00:11:31.410Z,103916.16
2019-05-13T00:13:57.323Z,103908.59
2019-05-13T00:16:23.522Z,103913.94
2019-05-13T00:18:49.422Z,103915.38
2019-05-13T00:21:15.309Z,103904.02
2019-05-13T00:23:41.153Z,103916.07
2019-05-13T00:26:07.015Z,103913.89
2019-05-13T00:28:34.170Z,103910.91
2019-05-13T00:31:00.444Z,103917.75
2019-05-13T00:33:26.294Z,103924.45
2019-05-13T00:35:53.465Z,103910.20
2019-05-13T00:38:19.415Z,103911.78
2019-05-13T00:40:45.262Z,103932.94
2019-05-13T00:43:11.169Z,103920.47
2019-05-13T00:45:37.029Z,103920.23
2019-05-13T00:48:04.685Z,103923.92
2019-05-13T00:50:30.761Z,103921.02
2019-05-13T00:52:56.622Z,103924.41
2019-05-13T00:55:23.767Z,103909.20
2019-05-13T00:57:49.823Z,103918.70
2019-05-13T01:00:16.042Z,103913.55
2019-05-13T01:02:44.328Z,103920.02
2019-05-13T01:05:09.886Z,103912.24
2019-05-13T01:07:35.749Z,103917.52
2019-05-13T01:10:04.041Z,103910.58
2019-05-13T01:12:29.474Z,103914.50
2019-05-13T01:14:55.347Z,103916.72
2019-05-13T01:17:23.494Z,103922.58
2019-05-13T01:19:49.036Z,103913.33
2019-05-13T01:22:15.740Z,103916.87
2019-05-13T01:24:43.654Z,103926.80
2019-05-13T01:27:09.363Z,103913.34
2019-05-13T01:29:35.216Z,103919.86
2019-05-13T01:32:01.075Z,103916.37
2019-05-13T01:34:26.929Z,103917.48
2019-05-13T01:36:53.550Z,103917.53
2019-05-13T01:39:19.539Z,103919.66
2019-05-13T01:41:45.396Z,103916.62
2019-05-13T01:44:11.241Z,103925.23
2019-05-13T01:46:37.107Z,103918.92
2019-05-13T01:49:04.956Z,103918.92
2019-05-13T01:51:33.269Z,103927.40
2019-05-13T01:53:58.473Z,103934.28
2019-05-13T01:56:24.334Z,103931.23
2019-05-13T01:58:50.204Z,103925.17
2019-05-13T02:01:16.065Z,103925.88
2019-05-13T02:03:44.171Z,103924.59
2019-05-13T02:06:09.721Z,103920.83
2019-05-13T02:08:35.580Z,103927.72
2019-05-13T02:11:04.011Z,103928.84
2019-05-13T02:13:29.720Z,103926.47
2019-05-13T02:15:55.741Z,103920.16
2019-05-13T02:18:24.135Z,103924.64
2019-05-13T02:20:49.400Z,103931.17
2019-05-13T02:23:15.279Z,103920.08
2019-05-13T02:25:43.445Z,103917.08
2019-05-13T02:28:10.706Z,103931.12
2019-05-13T02:30:36.742Z,103931.52
2019-05-13T02:33:03.194Z,103925.02
2019-05-13T02:35:32.242Z,103922.69
2019-05-13T02:38:14.716Z,103921.32
2019-05-13T02:40:24.684Z,103922.36
2019-05-13T02:42:52.324Z,103919.56
2019-05-13T02:45:18.308Z,103925.89
2019-05-13T02:47:44.587Z,103921.97
2019-05-13T02:50:12.825Z,103920.55
2019-05-13T02:52:38.993Z,103921.10
2019-05-13T02:55:05.848Z,103934.56
2019-05-13T02:57:32.761Z,103931.50
2019-05-13T02:59:58.868Z,103930.14
2019-05-13T03:02:24.714Z,103927.87
2019-05-13T03:04:52.317Z,103942.91
2019-05-13T03:07:18.347Z,103934.41
2019-05-13T03:09:44.226Z,103938.76
2019-05-13T03:12:13.057Z,103927.79
2019-05-13T03:14:37.841Z,103933.56
2019-05-13T03:17:08.122Z,103941.02
2019-05-13T03:19:33.978Z,103933.17
2019-05-13T03:22:02.996Z,103931.14
2019-05-13T03:24:28.468Z,103933.24
2019-05-13T03:26:54.313Z,103945.70
2019-05-13T03:29:22.222Z,103946.13
2019-05-13T03:31:47.931Z,103949.50
2019-05-13T03:34:15.774Z,103944.92
2019-05-13T03:36:46.137Z,103957.09
2019-05-13T03:39:14.473Z,103949.17
2019-05-13T03:41:38.011Z,103952.88
2019-05-13T03:44:09.190Z,103950.69
2019-05-13T03:46:37.769Z,103968.14
2019-05-13T03:49:06.727Z,103961.24
2019-05-13T03:51:32.847Z,103962.47
2019-05-13T03:54:02.775Z,103964.39
2019-05-13T03:56:26.792Z,103965.28
2019-05-13T03:58:53.619Z,103960.61
2019-05-13T04:01:22.391Z,103973.83
2019-05-13T04:03:47.975Z,103971.30
2019-05-13T04:06:14.486Z,103966.55
2019-05-13T04:08:43.381Z,103972.77
2019-05-13T04:11:08.252Z,103972.81
2019-05-13T04:13:34.114Z,103973.58
2019-05-13T04:16:03.566Z,103972.22
2019-05-13T04:18:27.955Z,103971.30
2019-05-13T04:20:53.809Z,103967.27
2019-05-13T04:23:22.947Z,103979.11
2019-05-13T04:25:47.567Z,103966.48
2019-05-13T04:28:13.651Z,103977.77
2019-05-13T04:30:43.333Z,103977.19
2019-05-13T04:33:07.972Z,103983.69
2019-05-13T04:35:33.815Z,103981.66
2019-05-13T04:38:03.024Z,103980.48
2019-05-13T04:40:27.429Z,103972.91
2019-05-13T04:42:53.935Z,103982.39
2019-05-13T04:45:23.478Z,103980.34
2019-05-13T04:47:47.762Z,103980.43
2019-05-13T04:50:13.907Z,103988.42
2019-05-13T04:52:42.343Z,103985.94
2019-05-13T04:55:08.033Z,103985.02
2019-05-13T04:57:34.086Z,103980.78
2019-05-13T05:00:03.727Z,103989.06
2019-05-13T05:02:55.002Z,103989.37
2019-05-13T05:05:34.453Z,103990.11
2019-05-13T05:08:28.010Z,103992.73
2019-05-13T05:11:14.319Z,103985.97
2019-05-13T05:14:04.221Z,103994.48
2019-05-13T05:16:52.289Z,103992.89
2019-05-13T05:19:32.096Z,103989.30
2019-05-13T05:22:22.034Z,103998.85
2019-05-13T05:25:08.034Z,103996.13
2019-05-13T05:28:04.908Z,104001.63
2019-05-13T05:31:08.556Z,103998.52
2019-05-13T05:33:56.889Z,103999.69
2019-05-13T05:36:52.904Z,104010.44
2019-05-13T05:39:26.340Z,104001.56
2019-05-13T05:41:55.249Z,104002.39
2019-05-13T05:44:24.471Z,104005.61
2019-05-13T05:46:52.963Z,104009.58
2019-05-13T05:49:21.440Z,104001.41
2019-05-13T05:51:51.462Z,104007.88
2019-05-13T05:54:21.665Z,104017.62
2019-05-13T05:56:51.961Z,104002.63
2019-05-13T05:59:21.808Z,104007.36
2019-05-13T06:01:52.616Z,104012.13
2019-05-13T06:04:21.872Z,104011.36
2019-05-13T06:06:48.113Z,104010.17
2019-05-13T06:09:14.174Z,104011.39
2019-05-13T06:11:41.739Z,104015.42
2019-05-13T06:14:07.841Z,104019.97
2019-05-13T06:16:33.823Z,104024.36
2019-05-13T06:19:01.396Z,104018.73
2019-05-13T06:21:27.418Z,104018.03
2019-05-13T06:23:53.290Z,104017.75
2019-05-13T06:26:19.233Z,104030.39
2019-05-13T06:28:45.962Z,104023.55
2019-05-13T06:31:13.314Z,104019.37
2019-05-13T06:33:39.235Z,104026.76
2019-05-13T06:36:05.220Z,104025.39
2019-05-13T06:38:31.811Z,104028.62
2019-05-13T06:41:02.669Z,104025.55
2019-05-13T06:43:25.778Z,104032.93
2019-05-13T06:45:51.627Z,104031.06
2019-05-13T06:48:17.478Z,104027.57
2019-05-13T06:50:43.341Z,104025.57
2019-05-13T06:53:09.199Z,104030.41
2019-05-13T06:55:35.062Z,104026.61
2019-05-13T06:58:02.207Z,104023.48
2019-05-13T07:00:28.477Z,104026.95
2019-05-13T07:02:54.320Z,104023.59
2019-05-13T07:05:22.492Z,104030.36
2019-05-13T07:07:47.954Z,104029.16
2019-05-13T07:10:13.928Z,104035.06
2019-05-13T07:12:41.204Z,104026.01
2019-05-13T07:15:07.707Z,104039.41
2019-05-13T07:17:33.594Z,104024.89
2019-05-13T07:20:02.092Z,104019.70
2019-05-13T07:22:27.240Z,104025.63
2019-05-13T07:24:53.150Z,104025.03
2019-05-13T07:27:19.059Z,104025.03
2019-05-13T07:29:44.934Z,104037.93
2019-05-13T07:32:11.967Z,104038.84
2019-05-13T07:34:38.097Z,104046.81
2019-05-13T07:37:03.957Z,104040.98
2019-05-13T07:39:32.404Z,104037.28
2019-05-13T07:41:57.975Z,104036.19
2019-05-13T07:44:23.822Z,104036.50
2019-05-13T07:46:52.103Z,104040.53
2019-05-13T07:49:17.484Z,104041.05
2019-05-13T07:51:43.341Z,104031.26
2019-05-13T07:54:11.402Z,104036.23
2019-05-13T07:56:37.170Z,104033.16
2019-05-13T07:59:03.021Z,104036.77
2019-05-13T08:01:28.878Z,104037.06
2019-05-13T08:03:54.748Z,104037.11
2019-05-13T08:06:21.966Z,104046.45
2019-05-13T08:08:48.119Z,104040.14
2019-05-13T08:11:13.984Z,104042.92
2019-05-13T08:13:41.582Z,104041.09
2019-05-13T08:16:07.638Z,104056.13
2019-05-13T08:18:33.602Z,104044.50
2019-05-13T08:21:02.078Z,104048.80
2019-05-13T08:23:27.310Z,104050.82
2019-05-13T08:25:53.192Z,104048.53
2019-05-13T08:28:19.040Z,104059.03
2019-05-13T08:30:45.003Z,104055.36
2019-05-13T08:33:12.534Z,104051.20
2019-05-13T08:35:38.731Z,104053.34
2019-05-13T08:38:04.578Z,104050.23
2019-05-13T08:40:31.822Z,104041.20
2019-05-13T08:42:57.808Z,104052.00
2019-05-13T08:45:23.786Z,104045.97
2019-05-13T08:47:51.218Z,104035.78
2019-05-13T08:50:17.488Z,104042.52
2019-05-13T08:52:43.353Z,104050.08
2019-05-13T08:55:13.536Z,104046.75
2019-05-13T08:57:37.299Z,104048.00
2019-05-13T09:00:05.887Z,104047.27
2019-05-13T09:02:31.853Z,104038.73
2019-05-13T09:04:58.021Z,104038.03
2019-05-13T09:07:24.502Z,104052.12
2019-05-13T09:09:51.219Z,104050.92
2019-05-13T09:12:29.505Z,104049.06
2019-05-13T09:14:45.309Z,104041.06
2019-05-13T09:17:12.063Z,104040.16
2019-05-13T09:19:38.240Z,104048.09
2019-05-13T09:22:04.104Z,104044.59
2019-05-13T09:24:36.645Z,104049.81
2019-05-13T09:26:57.764Z,104042.01
2019-05-13T09:29:23.730Z,104040.88
2019-05-13T09:31:51.927Z,104044.13
2019-05-13T09:34:17.498Z,104035.55
2019-05-13T09:36:43.356Z,104036.02
2019-05-13T09:39:09.210Z,104039.38
2019-05-13T09:41:40.851Z,104035.96
2019-05-13T09:44:03.256Z,104034.23
2019-05-13T09:46:31.627Z,104035.88
2019-05-13T09:49:11.869Z,104047.91
2019-05-13T09:51:24.630Z,104034.75
2019-05-13T09:53:51.955Z,104031.23
2019-05-13T09:56:18.035Z,104022.98
2019-05-13T09:58:43.917Z,104017.91
2019-05-13T10:01:12.331Z,104018.77
2019-05-13T10:03:53.239Z,104024.92
2019-05-13T10:06:05.832Z,104019.13
2019-05-13T10:08:32.797Z,104022.74
2019-05-13T10:11:01.365Z,104015.72
2019-05-13T10:13:26.828Z,104020.41
2019-05-13T10:15:52.657Z,104022.92
2019-05-13T10:18:18.769Z,104012.55
2019-05-13T10:20:57.913Z,104012.66
2019-05-13T10:23:22.397Z,104021.23
2019-05-13T10:25:52.176Z,104009.36
2019-05-13T10:28:18.546Z,104018.52
2019-05-13T10:30:46.600Z,104003.45
2019-05-13T10:33:12.697Z,104005.97
2019-05-13T10:35:42.894Z,104005.13
2019-05-13T10:38:13.122Z,104002.65
2019-05-13T10:40:37.650Z,104014.52
2019-05-13T10:43:03.521Z,104007.69
2019-05-13T10:45:29.499Z,104008.19
2019-05-13T10:47:55.358Z,104003.91
2019-05-13T10:50:23.226Z,104008.70
2019-05-13T10:52:49.563Z,104005.97
2019-05-13T10:55:16.749Z,103995.94
2019-05-13T10:57:42.617Z,103995.47
2019-05-13T11:00:08.974Z,103993.09
2019-05-13T11:02:34.852Z,103996.52
2019-05-13T11:05:02.923Z,103994.51
2019-05-13T11:07:28.478Z,103990.58
2019-05-13T11:09:54.386Z,103985.65
2019-05-13T11:12:22.213Z,103978.02
2019-05-13T11:14:51.433Z,103976.81
2019-05-13T11:17:15.747Z,103981.60
2019-05-13T11:19:41.769Z,103985.19
2019-05-13T11:22:07.670Z,103969.80
2019-05-13T11:24:33.495Z,103975.63
2019-05-13T11:26:59.345Z,103966.27
2019-05-13T11:29:25.235Z,103952.47
2019-05-13T11:31:52.446Z,103955.85
2019-05-13T11:34:21.580Z,103958.35
2019-05-13T11:36:46.648Z,103950.80
2019-05-13T11:39:13.112Z,103946.25
2019-05-13T11:41:42.459Z,103954.55
2019-05-13T11:44:14.121Z,103943.83
2019-05-13T11:46:34.667Z,103940.48
2019-05-13T11:49:02.495Z,103948.19
2019-05-13T11:51:28.290Z,103942.40
2019-05-13T11:53:54.159Z,103944.37
2019-05-13T11:56:22.740Z,103944.78
2019-05-13T11:58:48.071Z,103942.23
2019-05-13T12:01:13.994Z,103940.83
2019-05-13T12:03:42.884Z,103936.98
2019-05-13T12:06:07.673Z,103929.02
2019-05-13T12:08:34.299Z,103932.23
2019-05-13T12:11:03.292Z,103925.53
2019-05-13T12:13:28.223Z,103907.78
2019-05-13T12:15:54.697Z,103916.36
2019-05-13T12:18:23.681Z,103910.20
2019-05-13T12:20:48.405Z,103909.05
2019-05-13T12:23:14.400Z,103906.25
2019-05-13T12:25:43.730Z,103910.34
2019-05-13T12:28:07.981Z,103900.58
2019-05-13T12:30:34.164Z,103903.94
2019-05-13T12:33:03.158Z,103902.24
2019-05-13T12:35:32.226Z,103905.02
2019-05-13T12:37:56.873Z,103903.24
2019-05-13T12:40:23.287Z,103904.20
2019-05-13T12:42:49.298Z,103897.98
2019-05-13T12:45:15.358Z,103895.92
2019-05-13T12:47:43.260Z,103896.50
2019-05-13T12:50:09.485Z,103897.09
2019-05-13T12:52:37.317Z,103886.66
2019-05-13T12:55:03.974Z,103888.48
2019-05-13T12:57:31.919Z,103883.06
2019-05-13T13:02:32.347Z,103872.92
2019-05-13T13:05:10.524Z,103871.41
2019-05-13T13:07:24.561Z,103881.63
2019-05-13T13:09:53.483Z,103874.71
2019-05-13T13:12:18.413Z,103870.57
2019-05-13T13:14:44.756Z,103871.50
2019-05-13T13:17:12.836Z,103872.38
2019-05-13T13:19:38.482Z,103869.48
2019-05-13T13:22:07.900Z,103858.84
2019-05-13T13:24:32.098Z,103860.67
2019-05-13T13:26:57.955Z,103864.33
2019-05-13T13:29:23.914Z,103858.79
2019-05-13T13:31:54.046Z,103853.92
2019-05-13T13:34:18.964Z,103853.69
2019-05-13T13:36:46.320Z,103840.98
2019-05-13T13:39:14.860Z,103843.44
2019-05-13T13:44:08.244Z,103841.33
2019-05-13T13:46:42.312Z,103828.38
2019-05-13T13:49:02.137Z,103844.13
2019-05-13T13:51:28.011Z,103838.30
2019-05-13T13:53:56.519Z,103832.41
2019-05-13T13:56:25.220Z,103830.81
2019-05-13T13:58:49.456Z,103820.58
2019-05-13T14:03:46.057Z,103831.07
2019-05-13T14:06:12.661Z,103823.52
2019-05-13T14:06:58.555Z,103842.84
2019-05-13T14:07:09.314Z,103832.77
2019-05-13T14:08:41.376Z,103838.27
2019-05-13T14:11:08.657Z,103831.27
2019-05-13T14:13:34.532Z,103816.65
2019-05-13T14:16:01.880Z,103824.02
2019-05-13T14:18:28.040Z,103816.97
2019-05-13T14:20:53.905Z,103800.58
2019-05-13T14:23:21.284Z,103806.84
2019-05-13T14:25:47.301Z,103817.81
2019-05-13T14:28:17.338Z,103805.33
2019-05-13T14:30:42.229Z,103808.69
2019-05-13T14:33:08.150Z,103796.00
2019-05-13T14:35:34.067Z,103792.53
2019-05-13T14:38:02.324Z,103793.61
2019-05-13T14:40:27.742Z,103793.02
2019-05-13T14:42:53.606Z,103801.00
2019-05-13T14:45:21.362Z,103791.30
2019-05-13T14:47:47.325Z,103780.80
2019-05-13T14:50:13.385Z,103769.94
2019-05-13T14:52:41.500Z,103779.11
2019-05-13T14:55:07.577Z,103781.73
2019-05-13T14:57:33.415Z,103780.95
2019-05-13T15:00:02.175Z,103776.77
2019-05-13T15:02:27.031Z,103781.09
2019-05-13T15:04:53.197Z,103780.45
2019-05-13T15:07:21.372Z,103770.97
2019-05-13T15:09:46.995Z,103768.63
2019-05-13T15:12:12.876Z,103758.18
2019-05-13T15:14:40.673Z,103767.60
2019-05-13T15:17:07.731Z,103765.78
2019-05-13T15:19:34.036Z,103757.27
2019-05-13T15:21:59.889Z,103756.03
2019-05-13T15:24:26.311Z,103757.72
2019-05-13T15:26:52.224Z,103757.19
2019-05-13T15:29:18.102Z,103756.98
2019-05-13T15:31:57.571Z,103750.27
2019-05-13T15:34:23.626Z,103746.41
2019-05-13T15:36:50.948Z,103749.96
2019-05-13T15:39:17.373Z,103745.23
2019-05-13T15:41:43.229Z,103757.05
2019-05-13T15:44:11.318Z,103750.56
2019-05-13T15:46:36.830Z,103736.34
2019-05-13T15:49:02.682Z,103736.53
2019-05-13T15:51:31.293Z,103728.91
2019-05-13T15:53:57.322Z,103738.08
2019-05-13T15:56:23.383Z,103728.80
2019-05-13T15:58:49.348Z,103734.31
2019-05-13T16:01:15.198Z,103725.50
2019-05-13T16:03:41.675Z,103723.12
2019-05-13T16:06:07.601Z,103723.77
2019-05-13T16:08:33.480Z,103732.76
2019-05-13T16:11:01.852Z,103724.94
2019-05-13T16:13:27.228Z,103720.39
2019-05-13T16:15:53.210Z,103720.00
2019-05-13T16:18:19.298Z,103719.06
2019-05-13T16:20:45.533Z,103727.60
2019-05-13T16:23:12.407Z,103720.80
2019-05-13T16:25:38.541Z,103722.58
2019-05-13T16:28:04.397Z,103723.14
2019-05-13T16:30:32.035Z,103720.05
2019-05-13T16:32:58.054Z,103725.38
2019-05-13T16:35:24.025Z,103723.15
2019-05-13T16:37:50.718Z,103716.12
2019-05-13T16:40:17.369Z,103704.87
2019-05-13T16:42:43.227Z,103717.27
2019-05-13T16:45:11.993Z,103711.42
2019-05-13T16:47:37.732Z,103711.89
2019-05-13T16:50:05.791Z,103718.37
2019-05-13T16:52:31.849Z,103723.10
2019-05-13T16:54:57.747Z,103719.84
2019-05-13T16:57:23.681Z,103713.20
2019-05-13T16:59:51.546Z,103718.08
2019-05-13T17:02:17.609Z,103724.45
2019-05-13T17:04:43.465Z,103715.91
2019-05-13T17:07:09.328Z,103712.02
2019-05-13T17:09:35.191Z,103704.44
2019-05-13T17:12:01.419Z,103697.74
2019-05-13T17:14:27.512Z,103711.06
2019-05-13T17:16:53.396Z,103703.01
2019-05-13T17:19:19.263Z,103705.53
2019-05-13T17:21:45.121Z,103700.91
2019-05-13T17:24:12.382Z,103701.95
2019-05-13T17:26:38.484Z,103701.59
2019-05-13T17:29:04.342Z,103700.78
2019-05-13T17:31:32.368Z,103698.66
2019-05-13T17:33:57.974Z,103702.09
2019-05-13T17:36:23.846Z,103694.94
2019-05-13T17:38:49.723Z,103697.55
2019-05-13T17:41:15.670Z,103692.06
2019-05-13T17:43:41.527Z,103685.11
2019-05-13T17:46:07.389Z,103693.83
2019-05-13T17:48:33.384Z,103690.39
2019-05-13T17:51:01.362Z,103698.69
2019-05-13T17:53:27.073Z,103686.48
2019-05-13T17:55:52.960Z,103695.72
2019-05-13T17:58:18.840Z,103691.58
2019-05-13T18:00:44.689Z,103692.91
2019-05-13T18:03:11.309Z,103690.03
2019-05-13T18:05:37.518Z,103695.72
2019-05-13T18:08:03.383Z,103685.05
2019-05-13T18:10:31.615Z,103694.26
2019-05-13T18:12:57.101Z,103695.61
2019-05-13T18:15:23.002Z,103696.03
2019-05-13T18:17:48.867Z,103691.66
2019-05-13T18:20:15.338Z,103690.97
2019-05-13T18:22:41.984Z,103688.45
2019-05-13T18:25:11.733Z,103690.40
2019-05-13T18:27:36.770Z,103688.70
2019-05-13T18:30:05.891Z,103688.70
2019-05-13T18:32:32.075Z,103694.39
2019-05-13T18:34:58.031Z,103695.14
2019-05-13T18:37:24.120Z,103689.64
2019-05-13T18:39:52.033Z,103692.83
2019-05-13T18:42:18.056Z,103692.29
2019-05-13T18:44:44.040Z,103681.22
2019-05-13T18:47:12.049Z,103687.17
2019-05-13T18:49:38.374Z,103691.83
2019-05-13T18:52:04.338Z,103675.16
2019-05-13T18:54:31.570Z,103678.28
2019-05-13T18:56:57.759Z,103678.58
2019-05-13T18:59:23.611Z,103684.76
2019-05-13T19:01:52.681Z,103677.96
2019-05-13T19:04:17.253Z,103676.91
2019-05-13T19:06:43.129Z,103694.53
2019-05-13T19:09:11.050Z,103695.44
2019-05-13T19:11:36.798Z,103688.04
2019-05-13T19:14:02.741Z,103685.00
2019-05-13T19:16:28.606Z,103696.30
2019-05-13T19:18:54.499Z,103686.47
2019-05-13T19:21:21.858Z,103703.95
2019-05-13T19:23:47.949Z,103694.61
2019-05-13T19:26:13.817Z,103698.09
2019-05-13T19:28:39.702Z,103700.90
2019-05-13T19:31:05.560Z,103705.81
2019-05-13T19:33:31.443Z,103698.16
2019-05-13T19:35:57.297Z,103693.31
2019-05-13T19:38:23.445Z,103705.10
2019-05-13T19:40:50.141Z,103714.73
2019-05-13T19:43:15.995Z,103707.75
2019-05-13T19:45:41.853Z,103714.53
2019-05-13T19:48:07.738Z,103710.20
2019-05-13T19:50:33.594Z,103703.52
2019-05-13T19:53:01.308Z,103716.27
2019-05-13T19:55:27.266Z,103715.48
2019-05-13T19:57:53.267Z,103712.33
2019-05-13T20:00:21.180Z,103720.94
2019-05-13T20:02:47.156Z,103725.88
2019-05-13T20:05:13.031Z,103726.62
2019-05-13T20:07:38.898Z,103725.79
2019-05-13T20:10:05.566Z,103733.38
2019-05-13T20:12:31.432Z,103729.05
2019-05-13T20:14:57.294Z,103732.96
2019-05-13T20:17:23.461Z,103727.80
2019-05-13T20:19:51.388Z,103729.44
2019-05-13T20:22:17.146Z,103735.09
2019-05-13T20:24:43.118Z,103731.55
2019-05-13T20:27:08.962Z,103735.02
2019-05-13T20:29:34.826Z,103739.32
2019-05-13T20:32:01.317Z,103724.52
2019-05-13T20:34:27.346Z,103727.70
2019-05-13T20:36:53.223Z,103724.11
2019-05-13T20:39:19.132Z,103738.06
2019-05-13T20:41:44.995Z,103729.29
2019-05-13T20:44:10.875Z,103734.20
2019-05-13T20:46:36.974Z,103731.64
2019-05-13T20:49:02.834Z,103730.59
2019-05-13T20:51:28.710Z,103741.81
2019-05-13T20:53:54.573Z,103738.37
2019-05-13T20:56:21.377Z,103741.27
2019-05-13T20:58:47.564Z,103738.16
2019-05-13T21:01:13.450Z,103735.41
2019-05-13T21:03:41.870Z,103747.67
2019-05-13T21:06:07.058Z,103734.48
2019-05-13T21:08:32.934Z,103733.66
2019-05-13T21:10:58.787Z,103733.66
2019-05-13T21:13:24.634Z,103735.48
2019-05-13T21:15:51.836Z,103734.98
2019-05-13T21:18:17.975Z,103734.43
2019-05-13T21:20:43.826Z,103729.72
2019-05-13T21:23:11.331Z,103736.83
2019-05-13T21:25:37.485Z,103721.85
2019-05-13T21:28:03.425Z,103719.43
2019-05-13T21:30:29.315Z,103716.93
2019-05-13T21:32:55.194Z,103719.20
2019-05-13T21:35:22.617Z,103719.84
2019-05-13T21:37:48.483Z,103719.60
2019-05-13T21:40:15.956Z,103712.50
2019-05-13T21:42:42.116Z,103714.05
2019-05-13T21:45:08.203Z,103717.53
2019-05-13T21:47:34.056Z,103713.39
2019-05-13T21:50:00.013Z,103715.35
2019-05-13T21:52:25.848Z,103712.83
2019-05-13T21:54:51.761Z,103712.45
2019-05-13T21:57:17.565Z,103710.25
2019-05-13T21:59:45.215Z,103710.39
2019-05-13T22:02:11.215Z,103707.03
2019-05-13T22:04:37.193Z,103717.27
2019-05-13T22:07:03.070Z,103718.31
2019-05-13T22:09:28.936Z,103705.09
2019-05-13T22:11:54.908Z,103711.16
2019-05-13T22:14:20.766Z,103702.44
2019-05-13T22:16:46.634Z,103700.83
2019-05-13T22:19:12.501Z,103703.40
2019-05-13T22:21:38.358Z,103708.23
2019-05-13T22:24:04.222Z,103705.26
2019-05-13T22:26:31.183Z,103711.77
2019-05-13T22:28:57.045Z,103706.54
2019-05-13T22:31:22.988Z,103702.59
2019-05-13T22:33:48.857Z,103700.39
2019-05-13T22:36:14.731Z,103702.26
2019-05-13T22:38:42.647Z,103706.06
2019-05-13T22:41:08.670Z,103708.91
2019-05-13T22:43:34.540Z,103705.88
2019-05-13T22:46:01.232Z,103705.20
2019-05-13T22:48:27.106Z,103703.74
2019-05-13T22:50:52.946Z,103709.23
2019-05-13T22:53:20.986Z,103706.98
2019-05-13T22:55:46.593Z,103712.48
2019-05-13T22:58:12.484Z,103716.06
2019-05-13T23:00:38.471Z,103720.63
2019-05-13T23:03:04.336Z,103713.52
2019-05-13T23:05:30.185Z,103714.61
2019-05-13T23:07:56.067Z,103717.89
2019-05-13T23:10:22.519Z,103717.35
2019-05-13T23:12:48.564Z,103723.11
2019-05-13T23:15:14.536Z,103719.27
2019-05-13T23:17:41.494Z,103720.38
2019-05-13T23:20:07.817Z,103716.59
2019-05-13T23:22:33.662Z,103722.82
2019-05-13T23:25:01.475Z,103722.23
2019-05-13T23:27:27.288Z,103723.85
2019-05-13T23:29:53.150Z,103726.48
2019-05-13T23:32:21.172Z,103728.30
2019-05-13T23:34:46.785Z,103721.16
2019-05-13T23:37:12.652Z,103725.19
2019-05-13T23:39:38.503Z,103717.77
2019-05-13T23:42:04.374Z,103723.58
2019-05-13T23:44:32.178Z,103719.71
2019-05-13T23:46:58.062Z,103719.33
2019-05-13T23:49:23.984Z,103730.73
2019-05-13T23:51:52.038Z,103731.52
2019-05-13T23:54:17.894Z,103715.26
2019-05-13T23:56:43.757Z,103716.29
2019-05-13T23:59:11.319Z,103708.38
